sensor_id;sensor_type;location;lat;lon;timestamp;P1;durP1;ratioP1;P2;durP2;ratioP2
30062;SDS011;16889;67.864;24.990;2023-04-28T00:04:27;13.10;;;7.80;;
30062;SDS011;16889;67.864;24.990;2023-04-28T00:09:13;12.88;;;8.00;;
30062;SDS011;16889;67.864;24.990;2023-04-28T00:13:59;14.85;;;8.32;;
30062;SDS011;16889;67.864;24.990;2023-04-28T00:18:45;12.90;;;8.25;;
30062;SDS011;16889;67.864;24.990;2023-04-28T00:23:31;14.80;;;8.75;;
30062;SDS011;16889;67.864;24.990;2023-04-28T00:28:17;16.20;;;9.13;;
30062;SDS011;16889;67.864;24.990;2023-04-28T00:33:03;16.10;;;8.63;;
30062;SDS011;16889;67.864;24.990;2023-04-28T00:37:50;12.27;;;8.02;;
30062;SDS011;16889;67.864;24.990;2023-04-28T00:42:36;11.88;;;8.05;;
30062;SDS011;16889;67.864;24.990;2023-04-28T00:47:22;15.13;;;8.40;;
30062;SDS011;16889;67.864;24.990;2023-04-28T00:52:08;14.40;;;8.27;;
30062;SDS011;16889;67.864;24.990;2023-04-28T00:56:54;11.88;;;7.60;;
30062;SDS011;16889;67.864;24.990;2023-04-28T01:01:41;12.95;;;8.15;;
30062;SDS011;16889;67.864;24.990;2023-04-28T01:06:28;20.90;;;9.37;;
30062;SDS011;16889;67.864;24.990;2023-04-28T01:11:15;17.23;;;9.60;;
30062;SDS011;16889;67.864;24.990;2023-04-28T01:16:01;15.07;;;9.70;;
30062;SDS011;16889;67.864;24.990;2023-04-28T01:20:47;20.83;;;10.13;;
30062;SDS011;16889;67.864;24.990;2023-04-28T01:25:33;19.00;;;10.13;;
30062;SDS011;16889;67.864;24.990;2023-04-28T01:30:19;16.33;;;10.55;;
30062;SDS011;16889;67.864;24.990;2023-04-28T01:35:05;16.42;;;9.68;;
30062;SDS011;16889;67.864;24.990;2023-04-28T01:39:51;18.73;;;10.48;;
30062;SDS011;16889;67.864;24.990;2023-04-28T01:44:37;20.63;;;10.48;;
30062;SDS011;16889;67.864;24.990;2023-04-28T01:49:23;18.75;;;11.13;;
30062;SDS011;16889;67.864;24.990;2023-04-28T01:54:09;16.88;;;10.75;;
30062;SDS011;16889;67.864;24.990;2023-04-28T01:58:55;19.45;;;11.63;;
30062;SDS011;16889;67.864;24.990;2023-04-28T02:03:41;21.08;;;11.35;;
30062;SDS011;16889;67.864;24.990;2023-04-28T02:08:27;20.23;;;10.63;;
30062;SDS011;16889;67.864;24.990;2023-04-28T02:13:13;20.70;;;11.52;;
30062;SDS011;16889;67.864;24.990;2023-04-28T02:17:58;22.98;;;11.70;;
30062;SDS011;16889;67.864;24.990;2023-04-28T02:22:45;18.08;;;10.07;;
30062;SDS011;16889;67.864;24.990;2023-04-28T02:27:30;19.75;;;11.88;;
30062;SDS011;16889;67.864;24.990;2023-04-28T02:32:17;21.75;;;11.57;;
30062;SDS011;16889;67.864;24.990;2023-04-28T02:37:03;19.92;;;11.18;;
30062;SDS011;16889;67.864;24.990;2023-04-28T02:41:49;21.05;;;11.10;;
30062;SDS011;16889;67.864;24.990;2023-04-28T02:46:35;17.58;;;10.00;;
30062;SDS011;16889;67.864;24.990;2023-04-28T02:51:21;16.27;;;10.75;;
30062;SDS011;16889;67.864;24.990;2023-04-28T02:56:07;16.92;;;10.07;;
30062;SDS011;16889;67.864;24.990;2023-04-28T03:00:53;19.25;;;10.68;;
30062;SDS011;16889;67.864;24.990;2023-04-28T03:05:39;17.08;;;10.13;;
30062;SDS011;16889;67.864;24.990;2023-04-28T03:10:25;16.85;;;9.65;;
30062;SDS011;16889;67.864;24.990;2023-04-28T03:15:11;18.17;;;10.35;;
30062;SDS011;16889;67.864;24.990;2023-04-28T03:19:57;14.50;;;10.15;;
30062;SDS011;16889;67.864;24.990;2023-04-28T03:24:43;16.67;;;9.43;;
30062;SDS011;16889;67.864;24.990;2023-04-28T03:29:29;15.70;;;9.48;;
30062;SDS011;16889;67.864;24.990;2023-04-28T03:34:15;16.52;;;9.35;;
30062;SDS011;16889;67.864;24.990;2023-04-28T03:39:01;16.92;;;9.52;;
30062;SDS011;16889;67.864;24.990;2023-04-28T03:43:47;19.17;;;10.05;;
30062;SDS011;16889;67.864;24.990;2023-04-28T03:48:32;16.88;;;9.00;;
30062;SDS011;16889;67.864;24.990;2023-04-28T03:53:18;14.27;;;9.75;;
30062;SDS011;16889;67.864;24.990;2023-04-28T03:58:04;19.77;;;9.50;;
30062;SDS011;16889;67.864;24.990;2023-04-28T04:02:50;15.35;;;9.88;;
30062;SDS011;16889;67.864;24.990;2023-04-28T04:07:36;13.55;;;9.18;;
30062;SDS011;16889;67.864;24.990;2023-04-28T04:12:22;13.20;;;7.43;;
30062;SDS011;16889;67.864;24.990;2023-04-28T04:17:08;14.18;;;7.25;;
30062;SDS011;16889;67.864;24.990;2023-04-28T04:21:54;14.15;;;8.40;;
30062;SDS011;16889;67.864;24.990;2023-04-28T04:26:40;12.60;;;7.63;;
30062;SDS011;16889;67.864;24.990;2023-04-28T04:31:26;13.43;;;7.50;;
30062;SDS011;16889;67.864;24.990;2023-04-28T04:36:12;16.65;;;8.82;;
30062;SDS011;16889;67.864;24.990;2023-04-28T04:40:58;12.02;;;8.15;;
30062;SDS011;16889;67.864;24.990;2023-04-28T04:45:44;18.05;;;9.00;;
30062;SDS011;16889;67.864;24.990;2023-04-28T04:50:30;18.60;;;8.88;;
30062;SDS011;16889;67.864;24.990;2023-04-28T04:55:16;15.52;;;9.02;;
30062;SDS011;16889;67.864;24.990;2023-04-28T05:00:02;15.32;;;8.48;;
30062;SDS011;16889;67.864;24.990;2023-04-28T05:04:49;20.33;;;8.65;;
30062;SDS011;16889;67.864;24.990;2023-04-28T05:09:35;14.50;;;9.27;;
30062;SDS011;16889;67.864;24.990;2023-04-28T05:14:21;14.93;;;8.68;;
30062;SDS011;16889;67.864;24.990;2023-04-28T05:19:07;15.75;;;8.35;;
30062;SDS011;16889;67.864;24.990;2023-04-28T05:23:53;14.15;;;8.60;;
30062;SDS011;16889;67.864;24.990;2023-04-28T05:28:40;14.77;;;8.05;;
30062;SDS011;16889;67.864;24.990;2023-04-28T05:33:26;14.32;;;8.27;;
30062;SDS011;16889;67.864;24.990;2023-04-28T05:38:12;12.82;;;8.23;;
30062;SDS011;16889;67.864;24.990;2023-04-28T05:42:58;14.10;;;8.27;;
30062;SDS011;16889;67.864;24.990;2023-04-28T05:47:44;15.40;;;8.20;;
30062;SDS011;16889;67.864;24.990;2023-04-28T05:52:29;16.80;;;8.02;;
30062;SDS011;16889;67.864;24.990;2023-04-28T05:57:15;12.75;;;8.45;;
30062;SDS011;16889;67.864;24.990;2023-04-28T06:02:01;14.75;;;8.20;;
30062;SDS011;16889;67.864;24.990;2023-04-28T06:06:47;13.68;;;8.32;;
30062;SDS011;16889;67.864;24.990;2023-04-28T06:11:33;14.93;;;8.20;;
30062;SDS011;16889;67.864;24.990;2023-04-28T06:16:19;13.23;;;8.40;;
30062;SDS011;16889;67.864;24.990;2023-04-28T06:25:53;13.50;;;8.10;;
30062;SDS011;16889;67.864;24.990;2023-04-28T06:30:39;15.75;;;8.15;;
30062;SDS011;16889;67.864;24.990;2023-04-28T06:35:27;15.68;;;8.52;;
30062;SDS011;16889;67.864;24.990;2023-04-28T06:40:13;16.95;;;8.05;;
30062;SDS011;16889;67.864;24.990;2023-04-28T06:44:59;20.35;;;9.13;;
30062;SDS011;16889;67.864;24.990;2023-04-28T06:49:45;16.85;;;8.77;;
30062;SDS011;16889;67.864;24.990;2023-04-28T06:54:34;14.52;;;8.52;;
30062;SDS011;16889;67.864;24.990;2023-04-28T06:59:22;14.55;;;8.13;;
30062;SDS011;16889;67.864;24.990;2023-04-28T07:04:08;12.82;;;8.32;;
30062;SDS011;16889;67.864;24.990;2023-04-28T07:08:54;15.93;;;8.25;;
30062;SDS011;16889;67.864;24.990;2023-04-28T07:13:40;16.80;;;8.13;;
30062;SDS011;16889;67.864;24.990;2023-04-28T07:18:26;14.52;;;8.10;;
30062;SDS011;16889;67.864;24.990;2023-04-28T07:23:12;12.15;;;8.80;;
30062;SDS011;16889;67.864;24.990;2023-04-28T07:28:01;13.18;;;8.70;;
30062;SDS011;16889;67.864;24.990;2023-04-28T07:32:48;15.10;;;8.02;;
30062;SDS011;16889;67.864;24.990;2023-04-28T07:37:34;14.48;;;8.05;;
30062;SDS011;16889;67.864;24.990;2023-04-28T07:42:21;18.00;;;8.50;;
30062;SDS011;16889;67.864;24.990;2023-04-28T07:47:07;15.43;;;8.70;;
30062;SDS011;16889;67.864;24.990;2023-04-28T07:51:53;13.73;;;8.23;;
30062;SDS011;16889;67.864;24.990;2023-04-28T07:56:39;15.90;;;8.50;;
30062;SDS011;16889;67.864;24.990;2023-04-28T08:01:25;16.77;;;8.63;;
30062;SDS011;16889;67.864;24.990;2023-04-28T08:06:14;15.98;;;8.82;;
30062;SDS011;16889;67.864;24.990;2023-04-28T08:11:00;13.98;;;9.10;;
30062;SDS011;16889;67.864;24.990;2023-04-28T08:15:46;15.25;;;9.05;;
30062;SDS011;16889;67.864;24.990;2023-04-28T08:20:33;15.67;;;9.00;;
30062;SDS011;16889;67.864;24.990;2023-04-28T08:25:19;14.13;;;8.88;;
30062;SDS011;16889;67.864;24.990;2023-04-28T08:30:08;10.98;;;8.00;;
30062;SDS011;16889;67.864;24.990;2023-04-28T08:34:54;12.93;;;8.70;;
30062;SDS011;16889;67.864;24.990;2023-04-28T08:39:40;15.23;;;9.30;;
30062;SDS011;16889;67.864;24.990;2023-04-28T08:44:26;13.48;;;8.70;;
30062;SDS011;16889;67.864;24.990;2023-04-28T08:49:15;14.55;;;8.80;;
30062;SDS011;16889;67.864;24.990;2023-04-28T08:54:02;13.10;;;8.23;;
30062;SDS011;16889;67.864;24.990;2023-04-28T08:58:48;11.90;;;8.00;;
30062;SDS011;16889;67.864;24.990;2023-04-28T09:03:36;11.20;;;7.77;;
30062;SDS011;16889;67.864;24.990;2023-04-28T09:08:21;12.90;;;8.20;;
30062;SDS011;16889;67.864;24.990;2023-04-28T09:13:08;14.48;;;8.48;;
30062;SDS011;16889;67.864;24.990;2023-04-28T09:17:54;12.55;;;7.88;;
30062;SDS011;16889;67.864;24.990;2023-04-28T09:22:40;12.60;;;7.57;;
30062;SDS011;16889;67.864;24.990;2023-04-28T09:27:26;20.75;;;8.00;;
30062;SDS011;16889;67.864;24.990;2023-04-28T09:32:13;12.15;;;7.65;;
30062;SDS011;16889;67.864;24.990;2023-04-28T09:37:06;10.88;;;7.15;;
30062;SDS011;16889;67.864;24.990;2023-04-28T09:42:03;11.38;;;7.10;;
30062;SDS011;16889;67.864;24.990;2023-04-28T09:46:49;12.70;;;6.80;;
30062;SDS011;16889;67.864;24.990;2023-04-28T09:51:35;13.40;;;7.22;;
30062;SDS011;16889;67.864;24.990;2023-04-28T09:56:22;13.07;;;7.05;;
30062;SDS011;16889;67.864;24.990;2023-04-28T10:01:11;11.38;;;6.35;;
30062;SDS011;16889;67.864;24.990;2023-04-28T10:05:58;21.00;;;7.25;;
30062;SDS011;16889;67.864;24.990;2023-04-28T10:10:45;12.98;;;6.00;;
30062;SDS011;16889;67.864;24.990;2023-04-28T10:15:33;14.02;;;6.28;;
30062;SDS011;16889;67.864;24.990;2023-04-28T10:20:19;20.00;;;6.18;;
30062;SDS011;16889;67.864;24.990;2023-04-28T10:40:32;10.57;;;6.40;;
30062;SDS011;16889;67.864;24.990;2023-04-28T10:50:33;10.32;;;5.20;;
30062;SDS011;16889;67.864;24.990;2023-04-28T11:00:26;8.75;;;5.65;;
30062;SDS011;16889;67.864;24.990;2023-04-28T11:05:16;8.75;;;5.43;;
30062;SDS011;16889;67.864;24.990;2023-04-28T11:10:03;7.68;;;4.90;;
30062;SDS011;16889;67.864;24.990;2023-04-28T11:14:49;12.65;;;5.00;;
30062;SDS011;16889;67.864;24.990;2023-04-28T11:19:36;12.88;;;4.93;;
30062;SDS011;16889;67.864;24.990;2023-04-28T11:24:24;11.88;;;4.30;;
30062;SDS011;16889;67.864;24.990;2023-04-28T11:29:11;10.23;;;4.57;;
30062;SDS011;16889;67.864;24.990;2023-04-28T11:34:32;7.85;;;4.25;;
30062;SDS011;16889;67.864;24.990;2023-04-28T11:39:12;11.07;;;4.70;;
30062;SDS011;16889;67.864;24.990;2023-04-28T11:43:58;10.07;;;5.03;;
30062;SDS011;16889;67.864;24.990;2023-04-28T11:48:45;9.35;;;4.03;;
30062;SDS011;16889;67.864;24.990;2023-04-28T11:53:40;10.82;;;4.63;;
30062;SDS011;16889;67.864;24.990;2023-04-28T11:58:27;9.60;;;4.90;;
30062;SDS011;16889;67.864;24.990;2023-04-28T12:03:13;12.38;;;4.50;;
30062;SDS011;16889;67.864;24.990;2023-04-28T12:07:59;9.95;;;4.72;;
30062;SDS011;16889;67.864;24.990;2023-04-28T12:12:45;7.85;;;4.05;;
30062;SDS011;16889;67.864;24.990;2023-04-28T12:17:33;8.43;;;4.40;;
30062;SDS011;16889;67.864;24.990;2023-04-28T12:22:23;7.68;;;4.22;;
30062;SDS011;16889;67.864;24.990;2023-04-28T12:27:13;7.07;;;4.10;;
30062;SDS011;16889;67.864;24.990;2023-04-28T12:32:00;12.25;;;4.65;;
30062;SDS011;16889;67.864;24.990;2023-04-28T12:36:47;9.35;;;4.15;;
30062;SDS011;16889;67.864;24.990;2023-04-28T12:41:33;6.88;;;3.95;;
30062;SDS011;16889;67.864;24.990;2023-04-28T12:46:19;13.07;;;4.10;;
30062;SDS011;16889;67.864;24.990;2023-04-28T12:51:05;11.05;;;4.30;;
30062;SDS011;16889;67.864;24.990;2023-04-28T12:55:51;11.00;;;4.60;;
30062;SDS011;16889;67.864;24.990;2023-04-28T13:00:38;8.27;;;4.15;;
30062;SDS011;16889;67.864;24.990;2023-04-28T13:05:25;12.50;;;4.18;;
30062;SDS011;16889;67.864;24.990;2023-04-28T13:10:11;10.35;;;3.92;;
30062;SDS011;16889;67.864;24.990;2023-04-28T13:14:57;9.25;;;3.83;;
30062;SDS011;16889;67.864;24.990;2023-04-28T13:19:46;11.68;;;4.20;;
30062;SDS011;16889;67.864;24.990;2023-04-28T13:24:32;10.68;;;3.90;;
30062;SDS011;16889;67.864;24.990;2023-04-28T13:29:19;8.65;;;4.10;;
30062;SDS011;16889;67.864;24.990;2023-04-28T13:34:05;11.05;;;4.13;;
30062;SDS011;16889;67.864;24.990;2023-04-28T13:38:52;7.80;;;3.90;;
30062;SDS011;16889;67.864;24.990;2023-04-28T13:43:38;9.73;;;4.10;;
30062;SDS011;16889;67.864;24.990;2023-04-28T13:48:25;8.43;;;3.70;;
30062;SDS011;16889;67.864;24.990;2023-04-28T13:53:11;9.60;;;4.07;;
30062;SDS011;16889;67.864;24.990;2023-04-28T13:57:57;8.10;;;4.30;;
30062;SDS011;16889;67.864;24.990;2023-04-28T14:02:47;6.65;;;3.97;;
30062;SDS011;16889;67.864;24.990;2023-04-28T14:07:34;8.52;;;3.67;;
30062;SDS011;16889;67.864;24.990;2023-04-28T14:12:20;6.93;;;3.85;;
30062;SDS011;16889;67.864;24.990;2023-04-28T14:17:06;6.30;;;3.50;;
30062;SDS011;16889;67.864;24.990;2023-04-28T14:21:52;10.07;;;3.63;;
30062;SDS011;16889;67.864;24.990;2023-04-28T14:26:38;7.63;;;3.92;;
30062;SDS011;16889;67.864;24.990;2023-04-28T14:31:24;12.57;;;3.90;;
30062;SDS011;16889;67.864;24.990;2023-04-28T14:36:10;8.73;;;3.83;;
30062;SDS011;16889;67.864;24.990;2023-04-28T14:40:56;10.30;;;3.97;;
30062;SDS011;16889;67.864;24.990;2023-04-28T14:45:42;7.70;;;3.70;;
30062;SDS011;16889;67.864;24.990;2023-04-28T14:50:28;7.97;;;3.92;;
30062;SDS011;16889;67.864;24.990;2023-04-28T14:55:14;10.15;;;3.42;;
30062;SDS011;16889;67.864;24.990;2023-04-28T15:00:00;6.80;;;3.53;;
30062;SDS011;16889;67.864;24.990;2023-04-28T15:04:48;8.10;;;3.30;;
30062;SDS011;16889;67.864;24.990;2023-04-28T15:09:34;9.35;;;3.30;;
30062;SDS011;16889;67.864;24.990;2023-04-28T15:14:20;5.90;;;3.28;;
30062;SDS011;16889;67.864;24.990;2023-04-28T15:19:06;6.25;;;2.97;;
30062;SDS011;16889;67.864;24.990;2023-04-28T15:23:52;8.10;;;3.33;;
30062;SDS011;16889;67.864;24.990;2023-04-28T15:28:38;7.18;;;3.22;;
30062;SDS011;16889;67.864;24.990;2023-04-28T15:33:24;10.55;;;3.53;;
30062;SDS011;16889;67.864;24.990;2023-04-28T15:38:09;6.93;;;3.28;;
30062;SDS011;16889;67.864;24.990;2023-04-28T15:42:56;6.53;;;3.20;;
30062;SDS011;16889;67.864;24.990;2023-04-28T15:47:42;8.82;;;3.22;;
30062;SDS011;16889;67.864;24.990;2023-04-28T15:52:29;5.57;;;3.00;;
30062;SDS011;16889;67.864;24.990;2023-04-28T15:57:16;7.38;;;3.25;;
30062;SDS011;16889;67.864;24.990;2023-04-28T16:02:01;7.75;;;3.00;;
30062;SDS011;16889;67.864;24.990;2023-04-28T16:06:47;8.98;;;3.25;;
30062;SDS011;16889;67.864;24.990;2023-04-28T16:11:36;8.23;;;3.40;;
30062;SDS011;16889;67.864;24.990;2023-04-28T16:16:22;9.98;;;3.28;;
30062;SDS011;16889;67.864;24.990;2023-04-28T16:21:09;8.80;;;3.30;;
30062;SDS011;16889;67.864;24.990;2023-04-28T16:25:56;6.72;;;3.08;;
30062;SDS011;16889;67.864;24.990;2023-04-28T16:30:42;10.82;;;3.67;;
30062;SDS011;16889;67.864;24.990;2023-04-28T16:35:28;6.43;;;3.00;;
30062;SDS011;16889;67.864;24.990;2023-04-28T16:40:14;7.65;;;3.08;;
30062;SDS011;16889;67.864;24.990;2023-04-28T16:45:00;9.40;;;3.20;;
30062;SDS011;16889;67.864;24.990;2023-04-28T16:49:46;8.88;;;3.30;;
30062;SDS011;16889;67.864;24.990;2023-04-28T16:54:32;6.20;;;3.03;;
30062;SDS011;16889;67.864;24.990;2023-04-28T16:59:18;8.75;;;3.10;;
30062;SDS011;16889;67.864;24.990;2023-04-28T17:04:04;6.60;;;3.03;;
30062;SDS011;16889;67.864;24.990;2023-04-28T17:08:50;10.52;;;2.95;;
30062;SDS011;16889;67.864;24.990;2023-04-28T17:13:36;9.13;;;3.05;;
30062;SDS011;16889;67.864;24.990;2023-04-28T17:18:23;8.05;;;3.10;;
30062;SDS011;16889;67.864;24.990;2023-04-28T17:23:10;8.05;;;3.28;;
30062;SDS011;16889;67.864;24.990;2023-04-28T17:27:56;7.47;;;3.10;;
30062;SDS011;16889;67.864;24.990;2023-04-28T17:32:43;7.13;;;3.10;;
30062;SDS011;16889;67.864;24.990;2023-04-28T17:37:32;9.55;;;3.38;;
30062;SDS011;16889;67.864;24.990;2023-04-28T17:42:19;10.27;;;3.47;;
30062;SDS011;16889;67.864;24.990;2023-04-28T17:47:05;8.82;;;3.28;;
30062;SDS011;16889;67.864;24.990;2023-04-28T17:51:51;8.93;;;3.38;;
30062;SDS011;16889;67.864;24.990;2023-04-28T17:56:37;7.25;;;3.42;;
30062;SDS011;16889;67.864;24.990;2023-04-28T18:01:23;11.88;;;3.50;;
30062;SDS011;16889;67.864;24.990;2023-04-28T18:06:09;7.97;;;3.17;;
30062;SDS011;16889;67.864;24.990;2023-04-28T18:10:55;7.93;;;3.40;;
30062;SDS011;16889;67.864;24.990;2023-04-28T18:15:43;9.88;;;4.00;;
30062;SDS011;16889;67.864;24.990;2023-04-28T18:20:29;8.50;;;3.53;;
30062;SDS011;16889;67.864;24.990;2023-04-28T18:25:15;13.52;;;4.60;;
30062;SDS011;16889;67.864;24.990;2023-04-28T18:30:01;11.02;;;4.72;;
30062;SDS011;16889;67.864;24.990;2023-04-28T18:34:48;9.50;;;4.97;;
30062;SDS011;16889;67.864;24.990;2023-04-28T18:39:34;15.18;;;5.22;;
30062;SDS011;16889;67.864;24.990;2023-04-28T18:44:20;15.40;;;5.80;;
30062;SDS011;16889;67.864;24.990;2023-04-28T18:49:06;13.05;;;6.00;;
30062;SDS011;16889;67.864;24.990;2023-04-28T18:53:52;14.73;;;5.68;;
30062;SDS011;16889;67.864;24.990;2023-04-28T18:58:38;16.55;;;6.43;;
30062;SDS011;16889;67.864;24.990;2023-04-28T19:03:26;11.25;;;5.70;;
30062;SDS011;16889;67.864;24.990;2023-04-28T19:08:12;19.25;;;7.30;;
30062;SDS011;16889;67.864;24.990;2023-04-28T19:12:58;10.38;;;5.93;;
30062;SDS011;16889;67.864;24.990;2023-04-28T19:17:44;13.23;;;6.20;;
30062;SDS011;16889;67.864;24.990;2023-04-28T19:22:31;15.73;;;6.43;;
30062;SDS011;16889;67.864;24.990;2023-04-28T19:27:19;19.40;;;6.85;;
30062;SDS011;16889;67.864;24.990;2023-04-28T19:32:05;14.55;;;6.30;;
30062;SDS011;16889;67.864;24.990;2023-04-28T19:36:51;16.73;;;6.55;;
30062;SDS011;16889;67.864;24.990;2023-04-28T19:41:39;16.77;;;6.30;;
30062;SDS011;16889;67.864;24.990;2023-04-28T19:46:25;12.88;;;6.13;;
30062;SDS011;16889;67.864;24.990;2023-04-28T19:51:11;13.52;;;6.78;;
30062;SDS011;16889;67.864;24.990;2023-04-28T19:55:58;14.03;;;5.20;;
30062;SDS011;16889;67.864;24.990;2023-04-28T20:00:45;11.45;;;5.13;;
30062;SDS011;16889;67.864;24.990;2023-04-28T20:05:32;16.08;;;7.35;;
30062;SDS011;16889;67.864;24.990;2023-04-28T20:10:17;12.10;;;6.70;;
30062;SDS011;16889;67.864;24.990;2023-04-28T20:15:04;13.18;;;6.82;;
30062;SDS011;16889;67.864;24.990;2023-04-28T20:19:50;17.02;;;7.45;;
30062;SDS011;16889;67.864;24.990;2023-04-28T20:24:36;16.20;;;6.15;;
30062;SDS011;16889;67.864;24.990;2023-04-28T20:29:23;12.73;;;6.88;;
30062;SDS011;16889;67.864;24.990;2023-04-28T20:34:11;15.52;;;6.85;;
30062;SDS011;16889;67.864;24.990;2023-04-28T20:38:57;15.23;;;7.15;;
30062;SDS011;16889;67.864;24.990;2023-04-28T20:43:43;17.63;;;7.22;;
30062;SDS011;16889;67.864;24.990;2023-04-28T20:48:30;19.77;;;7.18;;
30062;SDS011;16889;67.864;24.990;2023-04-28T20:53:16;16.55;;;7.43;;
30062;SDS011;16889;67.864;24.990;2023-04-28T20:58:02;15.98;;;6.75;;
30062;SDS011;16889;67.864;24.990;2023-04-28T21:02:49;17.75;;;6.88;;
30062;SDS011;16889;67.864;24.990;2023-04-28T21:07:35;17.15;;;6.75;;
30062;SDS011;16889;67.864;24.990;2023-04-28T21:12:20;14.93;;;7.03;;
30062;SDS011;16889;67.864;24.990;2023-04-28T21:17:06;16.30;;;6.68;;
30062;SDS011;16889;67.864;24.990;2023-04-28T21:21:53;16.48;;;7.47;;
30062;SDS011;16889;67.864;24.990;2023-04-28T21:26:38;14.77;;;7.43;;
30062;SDS011;16889;67.864;24.990;2023-04-28T21:31:25;15.15;;;8.15;;
30062;SDS011;16889;67.864;24.990;2023-04-28T21:36:11;15.50;;;7.60;;
30062;SDS011;16889;67.864;24.990;2023-04-28T21:40:57;22.65;;;8.27;;
30062;SDS011;16889;67.864;24.990;2023-04-28T21:45:43;15.98;;;7.72;;
30062;SDS011;16889;67.864;24.990;2023-04-28T21:50:29;15.27;;;7.82;;
30062;SDS011;16889;67.864;24.990;2023-04-28T21:55:15;14.18;;;7.53;;
30062;SDS011;16889;67.864;24.990;2023-04-28T22:00:01;16.98;;;7.28;;
30062;SDS011;16889;67.864;24.990;2023-04-28T22:04:48;19.20;;;7.65;;
30062;SDS011;16889;67.864;24.990;2023-04-28T22:09:34;16.85;;;7.57;;
30062;SDS011;16889;67.864;24.990;2023-04-28T22:14:20;16.00;;;7.03;;
30062;SDS011;16889;67.864;24.990;2023-04-28T22:19:06;12.30;;;7.07;;
30062;SDS011;16889;67.864;24.990;2023-04-28T22:23:52;14.77;;;7.57;;
30062;SDS011;16889;67.864;24.990;2023-04-28T22:28:38;13.27;;;7.07;;
30062;SDS011;16889;67.864;24.990;2023-04-28T22:33:24;15.95;;;7.57;;
30062;SDS011;16889;67.864;24.990;2023-04-28T22:38:10;15.60;;;7.43;;
30062;SDS011;16889;67.864;24.990;2023-04-28T22:42:56;14.88;;;7.95;;
30062;SDS011;16889;67.864;24.990;2023-04-28T22:47:42;15.77;;;7.85;;
30062;SDS011;16889;67.864;24.990;2023-04-28T22:52:28;15.13;;;7.78;;
30062;SDS011;16889;67.864;24.990;2023-04-28T22:57:14;17.85;;;6.70;;
30062;SDS011;16889;67.864;24.990;2023-04-28T23:02:00;13.02;;;7.20;;
30062;SDS011;16889;67.864;24.990;2023-04-28T23:06:47;11.13;;;6.13;;
30062;SDS011;16889;67.864;24.990;2023-04-28T23:11:33;15.75;;;7.38;;
30062;SDS011;16889;67.864;24.990;2023-04-28T23:16:18;8.63;;;5.85;;
30062;SDS011;16889;67.864;24.990;2023-04-28T23:21:05;11.63;;;6.22;;
30062;SDS011;16889;67.864;24.990;2023-04-28T23:25:51;10.32;;;5.82;;
30062;SDS011;16889;67.864;24.990;2023-04-28T23:30:37;12.65;;;5.50;;
30062;SDS011;16889;67.864;24.990;2023-04-28T23:35:22;7.90;;;4.22;;
30062;SDS011;16889;67.864;24.990;2023-04-28T23:40:09;11.27;;;4.70;;
30062;SDS011;16889;67.864;24.990;2023-04-28T23:44:56;10.33;;;4.47;;
30062;SDS011;16889;67.864;24.990;2023-04-28T23:49:42;13.65;;;5.15;;
30062;SDS011;16889;67.864;24.990;2023-04-28T23:54:28;10.05;;;4.70;;
30062;SDS011;16889;67.864;24.990;2023-04-28T23:59:14;11.35;;;4.70;;
